createdAt,value
2023-05-04T00:01:01.348Z,8.48
2023-05-04T00:03:28.178Z,7.30
2023-05-04T00:05:55.074Z,8.10
2023-05-04T00:08:21.614Z,8.00
2023-05-04T00:10:48.236Z,8.30
2023-05-04T00:13:15.013Z,9.52
2023-05-04T00:15:41.798Z,6.53
2023-05-04T00:18:08.496Z,8.65
2023-05-04T00:20:35.135Z,8.23
2023-05-04T00:23:01.722Z,10.70
2023-05-04T00:25:28.294Z,6.93
2023-05-04T00:27:54.803Z,8.38
2023-05-04T00:30:21.379Z,7.65
2023-05-04T00:32:48.046Z,7.88
2023-05-04T00:35:14.911Z,7.40
2023-05-04T00:37:43.655Z,10.55
2023-05-04T00:40:10.626Z,8.05
2023-05-04T00:42:37.152Z,8.23
2023-05-04T00:45:03.908Z,7.75
2023-05-04T00:47:30.593Z,9.63
2023-05-04T00:49:57.302Z,8.43
2023-05-04T00:52:24.404Z,15.48
2023-05-04T00:54:52.823Z,7.72
2023-05-04T00:57:19.729Z,8.07
2023-05-04T00:59:47.584Z,8.68
2023-05-04T01:02:14.150Z,7.93
2023-05-04T01:04:40.790Z,7.65
2023-05-04T01:07:28.115Z,12.45
2023-05-04T01:10:03.521Z,10.80
2023-05-04T01:12:38.746Z,8.88
2023-05-04T01:15:06.391Z,9.60
2023-05-04T01:17:33.023Z,9.88
2023-05-04T01:19:59.644Z,8.57
2023-05-04T01:22:26.602Z,9.48
2023-05-04T01:24:53.342Z,11.50
2023-05-04T01:27:29.114Z,11.35
2023-05-04T01:30:02.592Z,9.73
2023-05-04T01:32:32.254Z,14.02
2023-05-04T01:34:59.298Z,10.10
2023-05-04T01:37:26.608Z,9.63
2023-05-04T01:39:53.138Z,11.10
2023-05-04T01:42:19.757Z,10.23
2023-05-04T01:44:46.575Z,12.43
2023-05-04T01:47:13.191Z,12.48
2023-05-04T01:49:40.442Z,10.75
2023-05-04T01:52:07.090Z,11.38
2023-05-04T01:54:33.700Z,11.93
2023-05-04T01:57:01.550Z,13.30
2023-05-04T01:59:28.147Z,11.43
2023-05-04T02:01:54.779Z,13.07
2023-05-04T02:04:21.379Z,13.10
2023-05-04T02:06:47.983Z,10.60
2023-05-04T02:09:14.647Z,12.52
2023-05-04T02:11:41.352Z,11.23
2023-05-04T02:14:07.908Z,16.67
2023-05-04T02:16:34.584Z,11.82
2023-05-04T02:19:01.290Z,12.35
2023-05-04T02:21:27.921Z,11.57
2023-05-04T02:23:54.444Z,12.52
2023-05-04T02:26:21.149Z,11.70
2023-05-04T02:28:47.696Z,12.75
2023-05-04T02:31:14.309Z,10.98
2023-05-04T02:33:40.918Z,13.07
2023-05-04T02:36:07.648Z,13.02
2023-05-04T02:38:34.208Z,10.80
2023-05-04T02:41:00.913Z,15.23
2023-05-04T02:43:27.619Z,12.45
2023-05-04T02:45:54.216Z,12.55
2023-05-04T02:48:20.905Z,13.13
2023-05-04T02:50:47.552Z,11.50
2023-05-04T02:53:14.074Z,11.18
2023-05-04T02:55:40.641Z,10.50
2023-05-04T02:58:07.379Z,11.65
2023-05-04T03:00:33.957Z,15.95
2023-05-04T03:03:00.701Z,13.48
2023-05-04T03:05:27.380Z,13.43
2023-05-04T03:07:53.917Z,15.02
2023-05-04T03:10:20.634Z,13.18
2023-05-04T03:12:47.262Z,16.48
2023-05-04T03:15:13.924Z,20.80
2023-05-04T03:17:40.646Z,25.65
2023-05-04T03:20:08.145Z,17.38
2023-05-04T03:22:34.870Z,12.18
2023-05-04T03:25:01.590Z,12.25
2023-05-04T03:27:28.191Z,13.90
2023-05-04T03:29:54.750Z,13.80
2023-05-04T03:32:21.399Z,12.23
2023-05-04T03:34:48.091Z,12.40
2023-05-04T03:37:14.873Z,14.05
2023-05-04T03:39:41.492Z,13.32
2023-05-04T03:42:08.151Z,11.82
2023-05-04T03:44:34.684Z,12.77
2023-05-04T03:47:01.278Z,13.30
2023-05-04T03:49:27.817Z,13.55
2023-05-04T03:51:54.391Z,13.73
2023-05-04T03:54:21.076Z,14.45
2023-05-04T03:56:47.627Z,15.65
2023-05-04T03:59:14.160Z,12.93
2023-05-04T04:01:40.732Z,16.42
2023-05-04T04:04:07.326Z,16.17
2023-05-04T04:06:33.939Z,16.73
2023-05-04T04:09:00.607Z,15.95
2023-05-04T04:11:27.187Z,16.85
2023-05-04T04:13:53.829Z,17.77
2023-05-04T04:16:21.162Z,14.32
2023-05-04T04:18:48.334Z,12.30
2023-05-04T04:21:15.053Z,14.73
2023-05-04T04:23:41.641Z,14.68
2023-05-04T04:26:08.245Z,12.82
2023-05-04T04:28:35.058Z,14.40
2023-05-04T04:31:03.220Z,17.17
2023-05-04T04:33:30.039Z,14.80
2023-05-04T04:35:56.847Z,16.70
2023-05-04T04:38:23.549Z,14.15
2023-05-04T04:40:50.252Z,15.07
2023-05-04T04:43:16.819Z,16.23
2023-05-04T04:45:45.042Z,15.35
2023-05-04T04:48:12.675Z,17.27
2023-05-04T04:50:40.314Z,15.13
2023-05-04T04:53:07.020Z,15.20
2023-05-04T04:55:34.529Z,18.23
2023-05-04T04:58:01.425Z,18.55
2023-05-04T05:00:28.107Z,19.05
2023-05-04T05:02:54.950Z,17.00
2023-05-04T05:05:21.733Z,20.40
2023-05-04T05:07:48.255Z,18.13
2023-05-04T05:10:14.920Z,18.02
2023-05-04T05:12:41.507Z,20.20
2023-05-04T05:15:09.231Z,18.35
2023-05-04T05:17:37.364Z,15.70
2023-05-04T05:20:12.097Z,16.13
2023-05-04T05:22:39.802Z,16.65
2023-05-04T05:25:07.385Z,20.90
2023-05-04T05:27:34.552Z,17.27
2023-05-04T05:30:05.721Z,18.25
2023-05-04T05:32:32.874Z,16.30
2023-05-04T05:34:59.434Z,16.30
2023-05-04T05:37:26.014Z,15.23
2023-05-04T05:39:52.539Z,16.80
2023-05-04T05:42:20.011Z,17.55
2023-05-04T05:44:46.604Z,16.55
2023-05-04T05:47:13.277Z,18.83
2023-05-04T05:49:39.877Z,15.65
2023-05-04T05:52:06.823Z,17.02
2023-05-04T05:54:34.973Z,18.90
2023-05-04T05:57:01.751Z,14.50
2023-05-04T05:59:28.312Z,13.90
2023-05-04T06:01:55.131Z,14.32
2023-05-04T06:04:21.686Z,14.23
2023-05-04T06:06:48.285Z,17.77
2023-05-04T06:09:14.827Z,20.67
2023-05-04T06:11:41.364Z,32.47
2023-05-04T06:14:08.064Z,16.17
2023-05-04T06:16:34.658Z,17.90
2023-05-04T06:19:01.316Z,98.25
2023-05-04T06:21:27.929Z,28.67
2023-05-04T06:23:54.485Z,20.30
2023-05-04T06:26:22.005Z,22.25
2023-05-04T06:28:48.594Z,15.15
2023-05-04T06:31:15.485Z,14.52
2023-05-04T06:33:42.234Z,13.13
2023-05-04T06:36:09.117Z,13.68
2023-05-04T06:38:37.912Z,13.23
2023-05-04T06:41:06.058Z,13.02
2023-05-04T06:43:33.412Z,14.32
2023-05-04T06:46:03.949Z,12.75
2023-05-04T06:48:31.578Z,14.70
2023-05-04T06:50:58.832Z,12.65
2023-05-04T06:53:26.674Z,13.10
2023-05-04T06:55:53.235Z,10.70
2023-05-04T06:58:21.547Z,11.70
2023-05-04T07:00:48.522Z,11.57
2023-05-04T07:03:15.160Z,11.52
2023-05-04T07:05:42.573Z,10.35
2023-05-04T07:08:10.078Z,11.52
2023-05-04T07:10:36.676Z,13.02
2023-05-04T07:13:03.468Z,10.65
2023-05-04T07:15:30.791Z,12.85
2023-05-04T07:17:57.379Z,11.40
2023-05-04T07:20:26.104Z,11.35
2023-05-04T07:22:57.036Z,11.68
2023-05-04T07:25:25.104Z,10.63
2023-05-04T07:27:52.133Z,9.35
2023-05-04T07:30:19.684Z,9.65
2023-05-04T07:32:46.525Z,8.65
2023-05-04T07:35:13.388Z,10.88
2023-05-04T07:37:40.287Z,9.48
2023-05-04T07:40:07.911Z,10.10
2023-05-04T07:42:34.906Z,11.45
2023-05-04T07:45:01.826Z,10.90
2023-05-04T07:47:28.480Z,9.82
2023-05-04T07:49:55.221Z,10.55
2023-05-04T07:52:22.057Z,9.43
2023-05-04T07:54:53.099Z,10.18
2023-05-04T07:57:20.382Z,10.43
2023-05-04T07:59:46.969Z,9.85
2023-05-04T08:02:13.610Z,10.10
2023-05-04T08:04:40.242Z,9.50
2023-05-04T08:07:07.107Z,10.27
2023-05-04T08:09:33.652Z,9.38
2023-05-04T08:12:00.260Z,10.25
2023-05-04T08:14:26.802Z,9.73
2023-05-04T08:16:53.330Z,8.65
2023-05-04T08:19:20.129Z,9.65
2023-05-04T08:21:46.672Z,9.40
2023-05-04T08:24:13.334Z,9.75
2023-05-04T08:26:41.404Z,8.77
2023-05-04T08:29:11.020Z,8.40
2023-05-04T08:31:37.798Z,8.70
2023-05-04T08:34:04.640Z,9.75
2023-05-04T08:36:31.706Z,8.85
2023-05-04T08:38:58.308Z,8.02
2023-05-04T08:41:25.058Z,11.57
2023-05-04T08:43:52.218Z,8.80
2023-05-04T08:46:19.070Z,8.05
2023-05-04T08:48:46.277Z,7.80
2023-05-04T08:51:14.416Z,7.95
2023-05-04T08:53:45.520Z,7.65
2023-05-04T08:56:13.581Z,8.18
2023-05-04T08:58:51.894Z,10.32
2023-05-04T09:01:19.583Z,9.50
2023-05-04T09:03:47.706Z,8.60
2023-05-04T09:06:15.108Z,8.48
2023-05-04T09:08:42.445Z,9.68
2023-05-04T09:11:09.557Z,8.95
2023-05-04T09:13:36.683Z,9.27
2023-05-04T09:16:04.002Z,9.60
2023-05-04T09:18:41.116Z,11.40
2023-05-04T09:21:08.455Z,8.93
2023-05-04T09:23:54.085Z,8.93
2023-05-04T09:26:30.945Z,10.20
2023-05-04T09:29:09.628Z,9.90
2023-05-04T09:31:49.273Z,13.07
2023-05-04T09:34:16.489Z,9.02
2023-05-04T09:36:43.443Z,10.65
2023-05-04T09:39:14.914Z,10.65
2023-05-04T09:41:42.095Z,10.02
2023-05-04T09:44:22.238Z,10.52
2023-05-04T09:46:59.198Z,9.90
2023-05-04T09:49:36.880Z,9.23
2023-05-04T09:52:05.293Z,9.25
2023-05-04T09:54:38.753Z,9.23
2023-05-04T09:57:11.816Z,10.82
2023-05-04T09:59:39.549Z,10.52
2023-05-04T10:02:14.516Z,13.60
2023-05-04T10:04:50.445Z,11.25
2023-05-04T10:07:17.663Z,10.60
2023-05-04T10:09:45.833Z,11.88
2023-05-04T10:12:12.449Z,11.50
2023-05-04T10:14:39.115Z,11.95
2023-05-04T10:17:14.317Z,10.25
2023-05-04T10:19:52.484Z,8.95
2023-05-04T10:22:50.506Z,8.30
2023-05-04T10:25:27.354Z,10.05
2023-05-04T10:28:03.547Z,8.65
2023-05-04T10:30:30.252Z,10.05
2023-05-04T10:32:58.786Z,8.43
2023-05-04T10:35:26.610Z,8.63
2023-05-04T10:37:56.760Z,7.82
2023-05-04T10:40:36.504Z,9.93
2023-05-04T10:43:03.551Z,9.40
2023-05-04T10:45:41.604Z,75.38
2023-05-04T10:48:09.465Z,157.43
2023-05-04T10:50:46.296Z,289.38
2023-05-04T10:53:15.462Z,305.55
2023-05-04T10:55:44.452Z,259.63
2023-05-04T10:58:16.209Z,118.25
2023-05-04T11:00:47.288Z,46.67
2023-05-04T11:03:15.119Z,24.67
2023-05-04T11:05:46.029Z,13.63
2023-05-04T11:11:01.180Z,10.82
2023-05-04T11:13:30.864Z,13.60
2023-05-04T11:15:57.407Z,13.82
2023-05-04T11:18:31.858Z,12.15
2023-05-04T11:20:58.798Z,11.40
2023-05-04T11:23:25.926Z,19.27
2023-05-04T11:25:53.210Z,11.55
2023-05-04T11:28:19.949Z,14.05
2023-05-04T11:30:47.609Z,10.88
2023-05-04T11:33:15.625Z,10.27
2023-05-04T11:35:44.361Z,7.30
2023-05-04T11:38:13.087Z,12.18
2023-05-04T11:40:46.993Z,7.90
2023-05-04T11:43:13.937Z,8.05
2023-05-04T11:45:42.416Z,7.97
2023-05-04T11:48:09.405Z,8.50
2023-05-04T11:50:36.345Z,16.17
2023-05-04T11:53:10.326Z,7.43
2023-05-04T11:55:37.923Z,4.35
2023-05-04T11:58:09.655Z,4.78
2023-05-04T12:00:38.541Z,5.82
2023-05-04T12:03:32.556Z,6.30
2023-05-04T12:08:41.868Z,6.05
2023-05-04T12:11:12.174Z,7.95
2023-05-04T12:13:40.390Z,6.55
2023-05-04T12:16:12.068Z,5.85
2023-05-04T12:18:39.408Z,6.65
2023-05-04T12:21:12.864Z,8.73
2023-05-04T12:23:41.178Z,6.35
2023-05-04T12:26:09.097Z,6.07
2023-05-04T12:28:36.653Z,5.60
2023-05-04T12:31:07.332Z,6.50
2023-05-04T12:33:34.808Z,7.03
2023-05-04T12:36:02.402Z,5.75
2023-05-04T12:38:29.471Z,7.03
2023-05-04T12:41:03.184Z,4.93
2023-05-04T12:43:31.150Z,4.70
2023-05-04T12:45:58.173Z,5.25
2023-05-04T12:48:28.187Z,5.93
2023-05-04T12:50:54.834Z,9.47
2023-05-04T12:53:24.339Z,4.93
2023-05-04T12:55:50.857Z,9.45
2023-05-04T12:58:17.368Z,5.18
2023-05-04T13:00:45.839Z,5.00
2023-05-04T13:03:13.018Z,8.07
2023-05-04T13:05:40.096Z,6.68
2023-05-04T13:08:06.618Z,7.30
2023-05-04T13:10:33.370Z,5.07
2023-05-04T13:13:00.083Z,12.27
2023-05-04T13:15:27.959Z,5.00
2023-05-04T13:17:54.706Z,4.32
2023-05-04T13:20:22.482Z,4.80
2023-05-04T13:22:50.392Z,6.20
2023-05-04T13:25:17.066Z,5.85
2023-05-04T13:27:43.675Z,4.55
2023-05-04T13:30:10.867Z,5.93
2023-05-04T13:32:37.556Z,3.97
2023-05-04T13:35:04.786Z,4.00
2023-05-04T13:37:31.663Z,4.70
2023-05-04T13:39:59.534Z,7.18
2023-05-04T13:42:26.358Z,4.60
2023-05-04T13:44:52.976Z,3.45
2023-05-04T13:47:19.492Z,4.50
2023-05-04T13:49:46.044Z,4.47
2023-05-04T13:52:13.364Z,4.20
2023-05-04T13:54:40.127Z,4.55
2023-05-04T13:57:07.203Z,5.20
2023-05-04T13:59:34.125Z,5.70
2023-05-04T14:02:01.428Z,3.28
2023-05-04T14:04:28.184Z,6.20
2023-05-04T14:06:54.842Z,5.80
2023-05-04T14:09:21.548Z,6.18
2023-05-04T14:11:48.284Z,3.80
2023-05-04T14:14:14.889Z,4.18
2023-05-04T14:16:41.851Z,3.88
2023-05-04T14:19:08.586Z,6.43
2023-05-04T14:21:35.993Z,5.20
2023-05-04T14:24:03.345Z,5.35
2023-05-04T14:26:31.701Z,8.68
2023-05-04T14:28:58.587Z,7.53
2023-05-04T14:31:25.162Z,10.40
2023-05-04T14:33:51.746Z,6.32
2023-05-04T14:36:18.283Z,3.90
2023-05-04T14:38:45.507Z,5.72
2023-05-04T14:41:13.568Z,7.10
2023-05-04T14:43:41.744Z,3.78
2023-05-04T14:46:12.871Z,6.60
2023-05-04T14:48:39.619Z,5.15
2023-05-04T14:51:06.420Z,8.40
2023-05-04T14:53:36.186Z,5.13
2023-05-04T14:58:30.418Z,3.80
2023-05-04T15:00:56.971Z,3.38
2023-05-04T15:03:23.646Z,2.78
2023-05-04T15:05:50.411Z,3.65
2023-05-04T15:08:16.944Z,6.00
2023-05-04T15:10:43.584Z,3.45
2023-05-04T15:13:12.140Z,5.13
2023-05-04T15:15:39.955Z,3.30
2023-05-04T15:18:06.743Z,4.18
2023-05-04T15:20:35.715Z,3.75
2023-05-04T15:23:04.918Z,3.80
2023-05-04T15:25:31.459Z,6.15
2023-05-04T15:27:58.016Z,3.97
2023-05-04T15:30:24.553Z,6.45
2023-05-04T15:32:51.517Z,3.85
2023-05-04T15:35:18.570Z,5.85
2023-05-04T15:37:45.169Z,7.60
2023-05-04T15:40:12.664Z,6.05
2023-05-04T15:42:39.251Z,5.72
2023-05-04T15:45:07.319Z,6.38
2023-05-04T15:47:35.519Z,6.40
2023-05-04T15:50:02.936Z,6.32
2023-05-04T15:52:29.573Z,9.35
2023-05-04T15:54:56.235Z,4.18
2023-05-04T15:57:22.883Z,5.65
2023-05-04T15:59:49.799Z,5.15
2023-05-04T16:02:16.581Z,8.32
2023-05-04T16:04:43.126Z,5.00
2023-05-04T16:07:10.002Z,3.35
2023-05-04T16:09:36.600Z,6.30
2023-05-04T16:12:05.124Z,5.05
2023-05-04T16:14:31.958Z,3.70
2023-05-04T16:17:01.927Z,3.97
2023-05-04T16:19:28.874Z,3.55
2023-05-04T16:21:55.390Z,5.15
2023-05-04T16:24:21.938Z,3.95
2023-05-04T16:26:53.579Z,3.53
2023-05-04T16:29:20.271Z,3.97
2023-05-04T16:31:47.821Z,3.95
2023-05-04T16:34:14.558Z,3.83
2023-05-04T16:36:41.232Z,3.83
2023-05-04T16:39:07.785Z,3.25
2023-05-04T16:41:34.330Z,2.65
2023-05-04T16:44:00.928Z,3.10
2023-05-04T16:46:27.564Z,3.10
2023-05-04T16:48:54.566Z,4.00
2023-05-04T16:51:21.454Z,5.13
2023-05-04T16:53:47.988Z,3.40
2023-05-04T16:56:18.604Z,4.90
2023-05-04T16:58:45.660Z,2.65
2023-05-04T17:01:12.442Z,5.25
2023-05-04T17:03:39.384Z,4.03
2023-05-04T17:06:06.540Z,3.47
2023-05-04T17:08:34.731Z,3.10
2023-05-04T17:11:01.322Z,3.58
2023-05-04T17:13:27.941Z,5.10
2023-05-04T17:15:54.572Z,3.20
2023-05-04T17:18:21.188Z,4.25
2023-05-04T17:20:47.814Z,4.50
2023-05-04T17:23:14.390Z,4.97
2023-05-04T17:25:41.428Z,6.13
2023-05-04T17:28:08.013Z,2.65
2023-05-04T17:30:35.587Z,3.40
2023-05-04T17:33:02.278Z,3.28
2023-05-04T17:35:29.208Z,6.30
2023-05-04T17:37:58.531Z,3.47
2023-05-04T17:40:27.006Z,3.60
2023-05-04T17:42:53.660Z,3.03
2023-05-04T17:45:21.016Z,4.72
2023-05-04T17:47:50.028Z,3.38
2023-05-04T17:50:16.595Z,3.70
2023-05-04T17:52:43.173Z,6.70
2023-05-04T17:55:09.763Z,5.15
2023-05-04T17:57:36.347Z,5.30
2023-05-04T18:00:05.261Z,4.28
2023-05-04T18:02:33.454Z,4.32
2023-05-04T18:05:00.032Z,4.95
2023-05-04T18:07:26.572Z,3.85
2023-05-04T18:09:53.209Z,4.97
2023-05-04T18:12:19.820Z,4.10
2023-05-04T18:14:46.486Z,13.23
2023-05-04T18:17:13.094Z,29.38
2023-05-04T18:19:39.721Z,12.15
2023-05-04T18:22:06.404Z,53.80
2023-05-04T18:24:33.943Z,24.35
2023-05-04T18:27:01.765Z,10.00
2023-05-04T18:29:28.356Z,17.83
2023-05-04T18:31:54.896Z,14.07
2023-05-04T18:34:21.462Z,14.50
2023-05-04T18:36:49.346Z,18.13
2023-05-04T18:39:16.067Z,18.35
2023-05-04T18:41:42.710Z,15.80
2023-05-04T18:44:09.923Z,30.75
2023-05-04T18:46:37.178Z,46.38
2023-05-04T18:49:03.789Z,20.88
2023-05-04T18:51:31.043Z,11.30
2023-05-04T18:53:57.671Z,7.70
2023-05-04T18:56:24.280Z,9.52
2023-05-04T18:58:51.022Z,9.15
2023-05-04T19:01:18.013Z,7.88
2023-05-04T19:03:47.473Z,8.88
2023-05-04T19:06:14.095Z,9.40
2023-05-04T19:08:40.642Z,11.50
2023-05-04T19:11:07.765Z,8.07
2023-05-04T19:13:34.999Z,9.15
2023-05-04T19:16:01.569Z,10.60
2023-05-04T19:18:28.269Z,7.05
2023-05-04T19:20:54.909Z,6.85
2023-05-04T19:23:21.547Z,8.23
2023-05-04T19:25:48.245Z,10.25
2023-05-04T19:28:15.004Z,7.18
2023-05-04T19:30:41.674Z,7.40
2023-05-04T19:33:08.635Z,6.43
2023-05-04T19:35:35.685Z,7.65
2023-05-04T19:38:02.354Z,8.65
2023-05-04T19:40:28.935Z,9.40
2023-05-04T19:42:55.464Z,9.88
2023-05-04T19:45:22.021Z,9.93
2023-05-04T19:47:50.269Z,7.25
2023-05-04T19:50:18.074Z,10.82
2023-05-04T19:52:44.809Z,8.27
2023-05-04T19:55:11.401Z,10.43
2023-05-04T19:57:37.945Z,10.05
2023-05-04T20:00:06.305Z,7.43
2023-05-04T20:02:33.174Z,5.72
2023-05-04T20:04:59.793Z,8.32
2023-05-04T20:07:26.765Z,6.15
2023-05-04T20:09:54.810Z,5.05
2023-05-04T20:12:21.411Z,9.35
2023-05-04T20:14:47.990Z,6.57
2023-05-04T20:17:15.483Z,7.53
2023-05-04T20:19:43.001Z,7.57
2023-05-04T20:22:09.637Z,6.85
2023-05-04T20:24:36.166Z,11.52
2023-05-04T20:27:02.735Z,9.50
2023-05-04T20:29:29.362Z,7.15
2023-05-04T20:31:56.323Z,5.85
2023-05-04T20:34:23.436Z,6.65
2023-05-04T20:36:50.035Z,6.60
2023-05-04T20:39:17.027Z,10.60
2023-05-04T20:41:43.633Z,8.40
2023-05-04T20:44:10.273Z,6.65
2023-05-04T20:46:37.377Z,6.43
2023-05-04T20:49:04.207Z,7.43
2023-05-04T20:51:31.402Z,7.47
2023-05-04T20:53:58.578Z,11.18
2023-05-04T20:56:25.288Z,7.32
2023-05-04T20:58:51.949Z,8.68
2023-05-04T21:01:18.583Z,14.00
2023-05-04T21:03:45.317Z,9.82
2023-05-04T21:06:12.136Z,7.78
2023-05-04T21:08:39.494Z,12.88
2023-05-04T21:11:06.454Z,9.98
2023-05-04T21:13:33.006Z,8.13
2023-05-04T21:15:59.676Z,9.05
2023-05-04T21:18:26.347Z,8.70
2023-05-04T21:20:53.304Z,11.70
2023-05-04T21:23:19.928Z,8.30
2023-05-04T21:25:46.782Z,16.02
2023-05-04T21:28:13.358Z,24.38
2023-05-04T21:30:43.340Z,14.23
2023-05-04T21:33:09.948Z,9.60
2023-05-04T21:35:36.449Z,8.90
2023-05-04T21:38:03.092Z,9.38
2023-05-04T21:40:29.930Z,10.75
2023-05-04T21:42:56.560Z,22.88
2023-05-04T21:45:23.535Z,28.63
2023-05-04T21:47:50.250Z,18.50
2023-05-04T21:50:17.078Z,48.35
2023-05-04T21:52:43.861Z,29.10
2023-05-04T21:55:10.726Z,13.15
2023-05-04T21:57:37.889Z,8.27
2023-05-04T22:00:11.873Z,8.05
2023-05-04T22:02:39.042Z,9.07
2023-05-04T22:05:05.957Z,6.80
2023-05-04T22:07:32.977Z,6.70
2023-05-04T22:10:00.169Z,7.68
2023-05-04T22:12:26.992Z,7.60
2023-05-04T22:14:53.579Z,7.65
2023-05-04T22:17:20.155Z,7.72
2023-05-04T22:19:46.933Z,10.02
2023-05-04T22:22:13.682Z,9.50
2023-05-04T22:24:40.289Z,9.27
2023-05-04T22:27:06.982Z,11.88
2023-05-04T22:29:35.565Z,10.05
2023-05-04T22:32:02.590Z,11.32
2023-05-04T22:34:29.226Z,10.80
2023-05-04T22:36:56.076Z,9.13
2023-05-04T22:39:22.868Z,8.75
2023-05-04T22:41:49.490Z,9.60
2023-05-04T22:44:16.114Z,11.18
2023-05-04T22:46:42.806Z,7.82
2023-05-04T22:49:09.532Z,9.57
2023-05-04T22:51:36.169Z,8.57
2023-05-04T22:54:02.869Z,6.75
2023-05-04T22:56:30.785Z,8.30
2023-05-04T22:58:57.403Z,7.90
2023-05-04T23:01:24.182Z,9.93
2023-05-04T23:03:51.138Z,7.30
2023-05-04T23:06:17.982Z,10.75
2023-05-04T23:08:45.316Z,10.98
2023-05-04T23:11:12.099Z,7.82
2023-05-04T23:13:38.847Z,9.02
2023-05-04T23:16:05.927Z,8.13
2023-05-04T23:18:32.935Z,14.13
2023-05-04T23:20:59.635Z,8.63
2023-05-04T23:23:26.345Z,7.80
2023-05-04T23:25:52.946Z,6.75
2023-05-04T23:28:19.508Z,9.43
2023-05-04T23:30:46.258Z,10.88
2023-05-04T23:33:13.341Z,7.75
2023-05-04T23:35:39.941Z,7.95
2023-05-04T23:38:06.506Z,7.40
2023-05-04T23:40:33.147Z,9.27
2023-05-04T23:42:59.728Z,6.55
2023-05-04T23:45:26.321Z,6.97
2023-05-04T23:47:53.199Z,7.20
2023-05-04T23:50:19.808Z,6.63
2023-05-04T23:52:46.418Z,8.52
2023-05-04T23:55:13.541Z,8.32
2023-05-04T23:57:43.321Z,7.47
